Search for airport 
image banner adimage banner adimage banner ad
image banner ad

3PN5 - H G F

Located in Allentown, United States

ICAO - 3PN5, IATA -

Data provided by Airmate  

General information

Coordinates: N40°33'54" W75°33'29"
Elevation is 420 feet MSL.
Magnetic variation is -11° East
View others Airports in Pennsylvania

Operational data

Special qualification required
Current time UTC:
Current local time:
Weather at : KXLL - Allentown Queen City Muni ( 6 km )
METAR: KXLL 061315Z AUTO 36010G15KT 10SM SCT045 12/02 A3002 RMK AO2
View NOTAMs / SUP AIP / TFR affecting this airport [VIEW]
Communications frequencies: [VIEW]

Runways:

Airport contact information

Address: Allentown United States

Satellite view of 3PN5